Time;durP1;ratioP1;P1;durP2;ratioP2;P2;SDS_P1;SDS_P2;PMS_P1;PMS_P2;Temp;Humidity;BMP_temperature;BMP_pressure;BME280_temperature;BME280_humidity;BME280_pressure;Samples;Min_cycle;Max_cycle;Signal;HPM_P1;HPM_P2
2023/04/18 00:00:10;;;;;;;2.40;1.58;;;15.40;96.70;;;;;;4958278;28;20047;-70
2023/04/18 00:02:42;;;;;;;2.83;1.73;;;15.40;96.70;;;;;;4963159;28;20049;-69
2023/04/18 00:05:16;;;;;;;2.05;1.85;;;15.40;96.70;;;;;;4958168;28;20074;-70
2023/04/18 00:07:45;;;;;;;2.58;1.63;;;15.40;96.70;;;;;;4962313;28;20046;-69
2023/04/18 00:10:13;;;;;;;2.13;1.60;;;15.30;96.70;;;;;;4960637;28;20066;-70
2023/04/18 00:12:41;;;;;;;3.42;1.98;;;15.30;96.70;;;;;;4961179;28;20047;-69
2023/04/18 00:15:11;;;;;;;2.83;1.98;;;15.30;96.70;;;;;;4960970;28;20415;-69
2023/04/18 00:17:39;;;;;;;2.33;1.90;;;15.30;96.70;;;;;;4982151;28;20057;-69
2023/04/18 00:20:10;;;;;;;3.42;1.95;;;15.20;96.70;;;;;;4960111;28;20622;-69
2023/04/18 00:22:41;;;;;;;2.10;1.75;;;15.20;96.70;;;;;;4958774;28;20046;-70
2023/04/18 00:25:10;;;;;;;2.80;2.20;;;15.20;96.70;;;;;;4960514;28;20435;-69
2023/04/18 00:27:38;;;;;;;3.53;2.35;;;15.00;96.70;;;;;;4959114;28;20062;-69
2023/04/18 00:30:08;;;;;;;3.70;1.90;;;15.10;96.70;;;;;;4957884;28;20051;-69
2023/04/18 00:32:37;;;;;;;1.77;1.60;;;15.00;96.70;;;;;;4944410;28;20050;-69
2023/04/18 00:35:06;;;;;;;2.63;1.90;;;15.00;96.70;;;;;;4958223;28;20073;-69
2023/04/18 00:37:34;;;;;;;2.33;1.95;;;15.00;96.70;;;;;;4959103;28;20053;-69
2023/04/18 00:40:05;;;;;;;2.30;1.80;;;15.00;96.70;;;;;;4960512;28;20441;-69
2023/04/18 00:42:33;;;;;;;2.83;1.95;;;15.00;96.70;;;;;;4982208;28;20382;-69
2023/04/18 00:45:01;;;;;;;2.13;1.90;;;15.00;96.70;;;;;;4982234;28;20121;-69
2023/04/18 00:47:29;;;;;;;3.70;2.30;;;14.90;96.70;;;;;;4957498;28;20084;-69
2023/04/18 00:49:58;;;;;;;1.63;1.52;;;14.90;96.70;;;;;;4980599;28;20506;-69
2023/04/18 00:52:27;;;;;;;4.75;2.08;;;14.60;96.70;;;;;;4957558;28;21088;-69
2023/04/18 00:54:55;;;;;;;1.80;1.70;;;14.50;96.70;;;;;;4963935;28;20049;-69
2023/04/18 00:57:24;;;;;;;2.05;1.77;;;14.50;96.70;;;;;;4947960;28;20043;-69
2023/04/18 00:59:53;;;;;;;2.70;2.08;;;14.60;96.70;;;;;;4960416;28;20497;-69
2023/04/18 01:02:21;;;;;;;3.25;1.80;;;14.60;96.70;;;;;;4948133;28;20043;-69
2023/04/18 01:04:51;;;;;;;3.22;2.28;;;14.70;96.70;;;;;;4966242;28;21095;-69
2023/04/18 01:07:18;;;;;;;2.63;1.98;;;14.70;96.70;;;;;;4965949;28;20042;-69
2023/04/18 01:09:47;;;;;;;3.60;2.33;;;14.60;96.70;;;;;;4965440;28;20050;-70
2023/04/18 01:12:15;;;;;;;5.20;2.28;;;14.60;96.70;;;;;;4963484;28;20741;-70
2023/04/18 01:14:44;;;;;;;3.47;2.38;;;14.60;96.70;;;;;;4962246;28;20079;-70
2023/04/18 01:17:12;;;;;;;3.63;2.35;;;14.60;96.70;;;;;;4965256;28;20049;-71
2023/04/18 01:19:45;;;;;;;2.72;2.20;;;14.60;96.70;;;;;;4970878;28;20244;-68
2023/04/18 01:22:14;;;;;;;3.00;2.20;;;14.60;96.70;;;;;;4949119;28;20047;-68
2023/04/18 01:24:43;;;;;;;3.00;2.10;;;14.60;96.70;;;;;;4964271;28;20567;-69
2023/04/18 01:27:12;;;;;;;2.85;2.30;;;14.60;96.70;;;;;;4964562;28;20137;-69
2023/04/18 01:29:40;;;;;;;2.55;2.13;;;14.60;96.70;;;;;;4965230;28;20497;-69
2023/04/18 01:32:08;;;;;;;2.25;2.05;;;14.40;96.70;;;;;;4963478;28;20043;-69
2023/04/18 01:34:36;;;;;;;2.80;1.92;;;14.40;96.70;;;;;;4947835;28;20042;-70
2023/04/18 01:37:05;;;;;;;3.15;2.22;;;14.40;96.70;;;;;;4964565;28;20057;-69
2023/04/18 01:39:33;;;;;;;3.03;2.03;;;14.40;96.70;;;;;;4961516;28;20071;-69
2023/04/18 01:42:02;;;;;;;2.10;1.90;;;14.30;96.70;;;;;;4965483;28;20588;-70
2023/04/18 01:44:30;;;;;;;3.60;2.40;;;14.20;96.70;;;;;;4947546;28;20094;-69
2023/04/18 01:46:58;;;;;;;2.28;1.90;;;14.30;96.70;;;;;;4963456;28;20484;-70
2023/04/18 01:49:26;;;;;;;2.70;2.38;;;14.30;96.70;;;;;;4960462;28;20043;-69
2023/04/18 01:51:54;;;;;;;2.60;2.10;;;14.30;96.70;;;;;;4960738;28;20719;-69
2023/04/18 01:54:23;;;;;;;2.30;2.10;;;14.30;96.70;;;;;;4963031;28;20041;-69
2023/04/18 01:56:52;;;;;;;4.88;2.70;;;14.20;96.70;;;;;;4961252;28;20390;-69
2023/04/18 01:59:21;;;;;;;4.53;2.90;;;14.10;96.70;;;;;;4965999;28;20496;-69
2023/04/18 02:01:50;;;;;;;2.50;2.00;;;13.80;96.70;;;;;;4962404;28;20043;-69
2023/04/18 02:04:18;;;;;;;2.42;2.17;;;13.70;96.70;;;;;;4959408;28;20043;-70
2023/04/18 02:06:46;;;;;;;2.50;2.08;;;13.80;96.70;;;;;;4958682;28;20578;-69
2023/04/18 02:09:15;;;;;;;3.63;1.98;;;13.90;96.70;;;;;;4961737;28;20505;-70
2023/04/18 02:11:43;;;;;;;2.90;1.88;;;13.80;96.70;;;;;;4984046;28;20137;-69
2023/04/18 02:14:12;;;;;;;2.55;1.83;;;13.80;96.70;;;;;;4962637;28;20043;-70
2023/04/18 02:16:41;;;;;;;1.60;1.50;;;13.80;96.70;;;;;;4964411;28;20050;-70
2023/04/18 02:19:09;;;;;;;3.65;2.15;;;13.90;96.70;;;;;;4963057;28;20492;-69
2023/04/18 02:21:37;;;;;;;2.42;2.22;;;13.90;96.70;;;;;;4962269;28;20054;-69
2023/04/18 02:24:05;;;;;;;3.85;1.60;;;13.90;96.70;;;;;;4958412;28;20454;-69
2023/04/18 02:26:33;;;;;;;2.20;1.75;;;13.80;96.70;;;;;;4962289;28;20404;-69
2023/04/18 02:29:01;;;;;;;3.17;1.60;;;13.80;96.70;;;;;;4984935;28;20062;-69
2023/04/18 02:31:30;;;;;;;1.63;1.38;;;13.80;96.70;;;;;;4963563;28;21021;-71
2023/04/18 02:34:00;;;;;;;1.70;1.40;;;13.80;96.70;;;;;;4964012;28;20663;-71
2023/04/18 02:36:27;;;;;;;2.00;1.50;;;13.70;96.70;;;;;;4978415;28;20540;-71
2023/04/18 02:38:55;;;;;;;2.55;1.40;;;13.80;96.70;;;;;;4963899;28;20620;-71
2023/04/18 02:41:23;;;;;;;1.63;1.40;;;13.70;96.70;;;;;;4961358;28;20165;-71
2023/04/18 02:43:54;;;;;;;3.85;1.48;;;13.80;96.70;;;;;;4961365;28;20783;-71
2023/04/18 02:46:22;;;;;;;2.67;1.67;;;13.70;96.70;;;;;;4962002;28;20050;-71
2023/04/18 02:48:51;;;;;;;2.58;1.70;;;13.80;96.70;;;;;;4943108;28;20066;-71
2023/04/18 02:51:25;;;;;;;3.88;1.98;;;13.70;96.70;;;;;;4945382;28;20143;-71
2023/04/18 02:53:55;;;;;;;1.88;1.67;;;13.70;96.70;;;;;;4958889;28;20051;-70
2023/04/18 02:56:25;;;;;;;2.05;1.85;;;13.60;96.70;;;;;;4961101;28;20440;-71
2023/04/18 02:59:13;;;;;;;2.05;1.50;;;13.60;96.70;;;;;;4962585;28;20043;-71
2023/04/18 03:02:17;;;;;;;2.22;1.50;;;13.50;96.70;;;;;;4973614;28;20047;-71
2023/04/18 03:04:51;;;;;;;1.95;1.60;;;13.50;96.70;;;;;;4973643;28;20082;-71
2023/04/18 03:07:20;;;;;;;3.08;1.83;;;13.60;96.70;;;;;;4970205;28;20061;-71
2023/04/18 03:09:51;;;;;;;2.65;1.75;;;13.60;96.70;;;;;;4976854;28;20505;-70
2023/04/18 03:12:25;;;;;;;3.28;1.80;;;13.50;96.70;;;;;;4955983;28;20054;-71
2023/04/18 03:14:53;;;;;;;3.78;1.73;;;13.40;96.70;;;;;;4958807;28;20587;-71
2023/04/18 03:17:21;;;;;;;2.50;1.48;;;13.40;96.70;;;;;;4957285;28;20160;-71
2023/04/18 03:19:49;;;;;;;2.05;1.52;;;13.50;96.70;;;;;;4962928;28;20054;-71
2023/04/18 03:22:21;;;;;;;1.77;1.48;;;13.50;96.70;;;;;;4971952;28;20061;-71
2023/04/18 03:24:58;;;;;;;1.98;1.60;;;13.50;96.70;;;;;;4957508;28;20058;-71
2023/04/18 03:27:48;;;;;;;2.45;1.80;;;13.50;96.70;;;;;;4974058;28;20053;-71
2023/04/18 03:30:21;;;;;;;2.25;1.67;;;13.50;96.70;;;;;;4972910;28;20053;-71
2023/04/18 03:33:06;;;;;;;2.75;2.08;;;13.50;96.70;;;;;;4958070;28;20456;-71
2023/04/18 03:35:35;;;;;;;1.80;1.63;;;13.50;96.70;;;;;;4937113;28;20081;-71
2023/04/18 03:38:04;;;;;;;1.70;1.38;;;13.60;96.70;;;;;;4955443;28;20042;-70
2023/04/18 03:40:36;;;;;;;2.20;1.48;;;13.50;96.70;;;;;;4963889;28;20108;-71
2023/04/18 03:43:11;;;;;;;1.90;1.50;;;13.50;96.70;;;;;;4946394;28;20047;-71
2023/04/18 03:45:39;;;;;;;1.98;1.50;;;13.60;96.70;;;;;;4960679;28;20089;-70
2023/04/18 03:48:07;;;;;;;2.40;1.70;;;13.60;96.70;;;;;;4956018;28;20140;-70
2023/04/18 03:50:40;;;;;;;1.70;1.40;;;13.60;96.70;;;;;;4961168;28;20049;-71
2023/04/18 03:53:35;;;;;;;2.25;1.65;;;13.60;96.70;;;;;;4942872;28;20075;-71
2023/04/18 03:56:04;;;;;;;2.38;1.40;;;13.60;96.70;;;;;;4963172;28;20050;-71
2023/04/18 03:59:01;;;;;;;2.55;1.75;;;13.60;96.70;;;;;;4957478;28;20140;-70
2023/04/18 04:01:30;;;;;;;3.05;1.65;;;13.60;96.70;;;;;;4940734;28;20046;-70
2023/04/18 04:04:00;;;;;;;2.13;1.70;;;13.60;96.70;;;;;;4958871;28;20061;-70
2023/04/18 04:06:30;;;;;;;2.35;1.50;;;13.50;96.70;;;;;;4957282;28;20150;-71
2023/04/18 04:09:01;;;;;;;2.50;2.05;;;13.60;96.70;;;;;;4926310;28;20065;-71
2023/04/18 04:11:30;;;;;;;2.00;1.55;;;13.60;96.70;;;;;;4955577;28;20051;-70
2023/04/18 04:13:57;;;;;;;2.17;1.80;;;13.60;96.70;;;;;;4943510;28;20133;-70
2023/04/18 04:16:31;;;;;;;3.13;2.10;;;13.60;96.70;;;;;;4942252;28;20591;-70
2023/04/18 04:19:00;;;;;;;2.70;1.75;;;13.60;96.70;;;;;;4960502;28;20420;-71
2023/04/18 04:21:36;;;;;;;2.95;1.85;;;13.50;96.70;;;;;;4955044;28;20572;-71
2023/04/18 04:24:08;;;;;;;2.55;1.60;;;13.50;96.70;;;;;;4943711;28;20205;-71
2023/04/18 04:26:41;;;;;;;2.00;1.70;;;13.50;96.70;;;;;;4944125;28;20050;-71
2023/04/18 04:29:15;;;;;;;3.10;1.63;;;13.40;96.70;;;;;;4946289;28;20042;-70
2023/04/18 04:31:46;;;;;;;2.92;1.73;;;13.20;96.70;;;;;;4964815;28;20153;-70
2023/04/18 04:34:21;;;;;;;2.05;1.52;;;13.30;96.70;;;;;;4933244;28;20070;-70
2023/04/18 04:36:50;;;;;;;1.77;1.40;;;13.20;96.70;;;;;;4965424;28;20112;-71
2023/04/18 04:39:19;;;;;;;2.47;1.52;;;13.20;96.70;;;;;;4964149;28;20035;-70
2023/04/18 04:42:24;;;;;;;2.17;1.75;;;13.20;96.70;;;;;;4973620;28;20621;-70
2023/04/18 04:45:02;;;;;;;3.95;1.92;;;13.20;96.70;;;;;;4965155;28;20050;-70
2023/04/18 04:47:30;;;;;;;3.42;1.60;;;13.20;96.70;;;;;;4977812;28;20049;-70
2023/04/18 04:49:58;;;;;;;2.85;1.33;;;13.10;96.70;;;;;;4961622;28;20042;-69
2023/04/18 04:52:26;;;;;;;2.67;1.60;;;13.20;96.70;;;;;;4964084;28;20081;-68
2023/04/18 04:54:55;;;;;;;2.58;1.55;;;13.10;96.70;;;;;;4977795;28;20413;-69
2023/04/18 04:57:25;;;;;;;2.13;1.40;;;13.10;96.70;;;;;;4982752;28;20047;-69
2023/04/18 04:59:53;;;;;;;2.58;1.67;;;13.10;96.70;;;;;;4964550;28;20050;-69
2023/04/18 05:02:22;;;;;;;2.67;1.50;;;13.10;96.70;;;;;;4957925;28;20496;-69
2023/04/18 05:04:50;;;;;;;2.35;1.77;;;13.10;96.70;;;;;;4980087;28;20058;-69
2023/04/18 05:07:18;;;;;;;2.45;1.50;;;13.10;96.70;;;;;;4980554;28;20038;-69
2023/04/18 05:09:46;;;;;;;4.95;1.67;;;13.10;96.70;;;;;;4981228;28;20137;-69
2023/04/18 05:12:15;;;;;;;3.85;1.77;;;13.20;96.70;;;;;;4975221;28;20059;-69
2023/04/18 05:14:43;;;;;;;2.03;1.60;;;13.30;96.70;;;;;;4980053;28;20152;-69
2023/04/18 05:17:11;;;;;;;3.45;1.83;;;13.20;96.70;;;;;;4980431;28;20060;-69
2023/04/18 05:19:39;;;;;;;7.38;2.65;;;13.30;96.70;;;;;;4964161;28;20050;-70
2023/04/18 05:22:07;;;;;;;4.20;2.17;;;13.20;96.70;;;;;;4965560;28;20046;-69
2023/04/18 05:24:35;;;;;;;4.93;2.10;;;13.10;96.70;;;;;;4964407;28;20504;-69
2023/04/18 05:27:03;;;;;;;4.95;2.40;;;13.10;96.70;;;;;;4964046;28;20101;-69
2023/04/18 05:29:32;;;;;;;4.32;1.95;;;13.20;96.70;;;;;;4965982;28;20608;-69
2023/04/18 05:32:08;;;;;;;2.83;2.08;;;13.10;96.70;;;;;;4963356;28;20050;-69
2023/04/18 05:34:36;;;;;;;3.85;2.53;;;13.00;96.70;;;;;;4963587;28;20046;-69
2023/04/18 05:37:05;;;;;;;6.80;2.85;;;13.10;96.70;;;;;;4958552;28;20157;-70
2023/04/18 05:39:33;;;;;;;3.75;3.30;;;13.30;96.70;;;;;;4966243;28;20074;-68
2023/04/18 05:42:01;;;;;;;5.30;3.60;;;13.40;96.70;;;;;;4963084;28;20035;-69
2023/04/18 05:44:30;;;;;;;4.40;3.03;;;13.40;96.70;;;;;;4966767;28;20605;-69
2023/04/18 05:46:59;;;;;;;5.13;3.03;;;13.50;96.70;;;;;;4965605;28;20081;-69
2023/04/18 05:49:28;;;;;;;5.20;3.10;;;13.50;96.70;;;;;;4964520;28;21322;-69
2023/04/18 05:51:56;;;;;;;4.72;3.00;;;13.50;96.70;;;;;;4965430;28;20046;-69
2023/04/18 05:54:24;;;;;;;4.70;2.65;;;13.60;96.70;;;;;;4965083;28;20117;-69
2023/04/18 05:56:54;;;;;;;4.20;2.63;;;13.50;96.70;;;;;;4964404;28;20051;-69
2023/04/18 05:59:22;;;;;;;4.95;2.97;;;13.60;96.70;;;;;;4964713;28;20051;-69
2023/04/18 06:01:57;;;;;;;6.30;3.70;;;13.70;96.70;;;;;;4965802;28;20085;-69
2023/04/18 06:04:25;;;;;;;9.13;4.63;;;13.80;96.70;;;;;;4962578;28;20062;-69
2023/04/18 06:06:54;;;;;;;10.55;5.05;;;13.70;96.70;;;;;;4964913;28;20408;-69
2023/04/18 06:09:22;;;;;;;9.52;5.05;;;13.70;96.70;;;;;;4965014;28;20097;-69
2023/04/18 06:11:50;;;;;;;9.13;3.75;;;13.70;96.70;;;;;;4962558;28;20042;-69
2023/04/18 06:14:18;;;;;;;16.27;5.70;;;13.60;96.70;;;;;;4966626;28;20532;-69
2023/04/18 06:16:46;;;;;;;10.52;3.70;;;13.60;96.70;;;;;;4963944;28;20039;-69
2023/04/18 06:19:15;;;;;;;10.68;3.95;;;13.70;96.70;;;;;;4965589;28;20042;-69
2023/04/18 06:21:44;;;;;;;4.90;3.42;;;13.80;96.70;;;;;;4965126;28;20071;-69
2023/04/18 06:24:12;;;;;;;7.45;4.00;;;13.90;96.70;;;;;;4961442;28;20043;-69
2023/04/18 06:26:40;;;;;;;6.85;3.78;;;14.00;96.70;;;;;;4964070;28;20058;-69
2023/04/18 06:29:08;;;;;;;7.50;3.33;;;14.10;96.70;;;;;;4963548;28;20437;-69
2023/04/18 06:31:36;;;;;;;6.10;3.17;;;14.00;96.70;;;;;;4963674;28;20047;-69
2023/04/18 06:34:06;;;;;;;6.25;3.80;;;14.10;96.70;;;;;;4965737;28;20039;-69
2023/04/18 06:36:35;;;;;;;6.30;3.10;;;14.20;96.70;;;;;;4961068;28;20157;-69
2023/04/18 06:39:03;;;;;;;8.52;3.50;;;14.10;96.70;;;;;;4964745;28;20429;-69
2023/04/18 06:41:31;;;;;;;6.80;3.72;;;14.20;96.70;;;;;;4965029;28;20461;-69
2023/04/18 06:43:59;;;;;;;6.82;4.07;;;14.30;96.70;;;;;;4960362;28;20043;-69
2023/04/18 06:46:31;;;;;;;7.07;3.53;;;14.30;96.70;;;;;;4965753;28;20061;-69
2023/04/18 06:48:59;;;;;;;5.50;3.30;;;14.30;96.70;;;;;;4960115;28;20046;-69
2023/04/18 06:51:27;;;;;;;7.57;3.90;;;14.40;96.70;;;;;;4960883;28;20043;-69
2023/04/18 06:53:57;;;;;;;6.07;3.65;;;14.50;96.70;;;;;;4963961;28;20106;-69
2023/04/18 06:56:25;;;;;;;4.80;3.53;;;14.60;96.70;;;;;;4962556;28;20492;-69
2023/04/18 06:58:53;;;;;;;7.35;4.10;;;14.50;96.70;;;;;;4962771;28;20448;-69
2023/04/18 07:01:21;;;;;;;6.18;4.07;;;14.60;96.70;;;;;;4963932;28;20045;-69
2023/04/18 07:03:49;;;;;;;8.18;4.35;;;14.60;96.70;;;;;;4961795;28;20125;-70
2023/04/18 07:06:17;;;;;;;7.70;4.20;;;14.60;96.70;;;;;;4963872;28;20460;-69
2023/04/18 07:08:45;;;;;;;7.22;4.03;;;14.70;96.70;;;;;;4963792;28;20039;-69
2023/04/18 07:11:17;;;;;;;6.30;3.90;;;14.70;96.70;;;;;;4962900;28;20069;-70
2023/04/18 07:13:47;;;;;;;6.55;4.53;;;14.60;96.70;;;;;;4960689;28;20109;-68
2023/04/18 07:16:14;;;;;;;5.85;4.40;;;14.60;96.70;;;;;;4960946;28;20045;-70
2023/04/18 07:18:42;;;;;;;8.02;4.53;;;14.70;96.70;;;;;;4962783;28;20041;-70
2023/04/18 07:21:10;;;;;;;6.57;4.10;;;14.70;96.70;;;;;;4956708;28;20046;-69
2023/04/18 07:23:38;;;;;;;5.75;4.07;;;14.80;96.70;;;;;;4962229;28;20054;-69
2023/04/18 07:26:08;;;;;;;6.07;4.20;;;14.80;96.70;;;;;;4960712;28;20058;-68
2023/04/18 07:28:37;;;;;;;5.93;3.78;;;14.90;96.70;;;;;;4959075;28;20477;-70
2023/04/18 07:31:09;;;;;;;8.70;4.00;;;15.00;96.70;;;;;;4962216;28;20412;-70
2023/04/18 07:33:38;;;;;;;6.45;4.03;;;15.00;96.70;;;;;;4963600;28;20171;-70
2023/04/18 07:36:06;;;;;;;7.53;4.43;;;15.10;96.70;;;;;;4963393;28;20052;-69
2023/04/18 07:38:34;;;;;;;9.57;5.78;;;15.20;96.70;;;;;;4961276;28;20069;-69
2023/04/18 07:41:02;;;;;;;7.93;4.47;;;15.20;96.70;;;;;;4969009;28;20042;-70
2023/04/18 07:43:30;;;;;;;9.30;5.15;;;15.30;96.70;;;;;;4963236;28;20608;-70
2023/04/18 07:45:59;;;;;;;8.07;4.88;;;15.40;96.70;;;;;;4962637;28;20035;-70
2023/04/18 07:48:27;;;;;;;9.13;5.13;;;15.50;96.70;;;;;;4963391;28;20039;-70
2023/04/18 07:50:55;;;;;;;8.88;5.30;;;15.60;96.70;;;;;;4961727;28;20038;-71
2023/04/18 07:53:23;;;;;;;8.27;4.30;;;15.70;96.70;;;;;;4962433;28;20057;-71
2023/04/18 07:55:55;;;;;;;10.82;5.15;;;15.80;96.70;;;;;;4960839;28;20496;-71
2023/04/18 07:58:23;;;;;;;9.80;5.25;;;15.90;96.70;;;;;;4961751;28;20062;-69
2023/04/18 08:00:51;;;;;;;10.77;5.95;;;16.00;96.70;;;;;;4964173;28;20053;-70
2023/04/18 08:03:21;;;;;;;10.18;5.43;;;16.10;96.70;;;;;;4946000;28;20074;-70
2023/04/18 08:05:50;;;;;;;16.70;6.70;;;16.20;96.70;;;;;;4963101;28;20094;-70
2023/04/18 08:08:18;;;;;;;13.57;6.47;;;16.30;96.70;;;;;;4962389;28;20043;-70
2023/04/18 08:10:46;;;;;;;12.70;6.43;;;16.50;96.70;;;;;;4977229;28;20058;-71
2023/04/18 08:13:20;;;;;;;14.23;6.70;;;16.60;96.70;;;;;;4962473;28;20070;-69
2023/04/18 08:15:48;;;;;;;9.80;6.00;;;16.70;96.70;;;;;;4961888;28;20047;-69
2023/04/18 08:18:16;;;;;;;11.35;6.25;;;16.80;96.70;;;;;;4961529;28;20078;-70
2023/04/18 08:20:46;;;;;;;10.57;5.72;;;16.90;96.70;;;;;;4965195;28;20050;-70
2023/04/18 08:23:25;;;;;;;9.23;5.13;;;17.10;96.70;;;;;;4945369;28;20478;-70
2023/04/18 08:25:53;;;;;;;9.70;5.40;;;17.20;96.70;;;;;;4962337;28;20046;-70
2023/04/18 08:28:21;;;;;;;12.77;5.78;;;17.30;96.70;;;;;;4963572;28;20101;-70
2023/04/18 08:30:50;;;;;;;7.90;5.40;;;17.40;96.70;;;;;;4962475;28;20130;-70
2023/04/18 08:33:18;;;;;;;10.70;5.10;;;17.40;96.70;;;;;;4962547;28;20045;-71
2023/04/18 08:35:47;;;;;;;6.85;4.57;;;17.50;96.70;;;;;;4970281;28;20054;-70
2023/04/18 08:38:16;;;;;;;8.48;4.95;;;17.50;96.70;;;;;;4962674;28;20051;-71
2023/04/18 08:40:44;;;;;;;8.60;4.97;;;17.60;96.70;;;;;;4968753;28;20057;-70
2023/04/18 08:43:13;;;;;;;8.20;4.47;;;17.80;96.70;;;;;;4963402;28;20497;-71
2023/04/18 08:45:42;;;;;;;6.10;4.10;;;17.90;96.70;;;;;;4961537;28;20035;-70
2023/04/18 08:48:11;;;;;;;5.63;3.67;;;17.90;96.70;;;;;;4960381;28;20042;-70
2023/04/18 08:50:40;;;;;;;4.55;2.65;;;18.00;96.70;;;;;;4956434;28;20047;-71
2023/04/18 08:53:09;;;;;;;5.07;2.97;;;17.90;96.70;;;;;;4961265;28;20046;-70
2023/04/18 08:55:37;;;;;;;3.13;2.35;;;17.90;96.70;;;;;;4963016;28;20045;-70
2023/04/18 08:58:05;;;;;;;4.00;2.80;;;17.90;96.70;;;;;;4962261;28;20042;-70
2023/04/18 09:00:34;;;;;;;4.63;2.65;;;17.90;96.70;;;;;;4959381;28;20054;-70
2023/04/18 09:03:02;;;;;;;3.13;2.30;;;18.10;96.70;;;;;;4963288;28;21136;-68
2023/04/18 09:05:30;;;;;;;4.45;2.88;;;18.40;96.70;;;;;;4962409;28;20055;-71
2023/04/18 09:07:58;;;;;;;3.40;3.03;;;18.50;96.70;;;;;;4962180;28;20042;-71
2023/04/18 09:10:31;;;;;;;2.65;2.40;;;18.40;96.70;;;;;;4962348;28;20054;-71
2023/04/18 09:13:01;;;;;;;3.10;2.60;;;18.40;96.70;;;;;;4961583;28;20093;-71
2023/04/18 09:15:30;;;;;;;4.40;2.35;;;18.50;96.70;;;;;;4964704;28;20038;-70
2023/04/18 09:18:01;;;;;;;4.68;2.58;;;18.70;96.70;;;;;;4965479;28;20042;-69
2023/04/18 09:20:36;;;;;;;5.28;2.78;;;18.80;96.70;;;;;;4962462;28;20043;-70
2023/04/18 09:23:09;;;;;;;6.28;2.83;;;18.90;96.70;;;;;;4960395;28;20043;-71
2023/04/18 09:25:45;;;;;;;5.07;2.45;;;19.10;96.70;;;;;;4965802;28;20053;-70
2023/04/18 09:28:24;;;;;;;3.23;2.30;;;19.10;96.70;;;;;;4956608;28;20048;-70
2023/04/18 09:30:53;;;;;;;3.13;2.20;;;19.20;96.70;;;;;;4960742;28;22436;-70
2023/04/18 09:33:27;;;;;;;3.78;2.40;;;19.20;96.70;;;;;;4964594;28;20047;-70
2023/04/18 09:35:55;;;;;;;5.10;2.70;;;19.20;96.70;;;;;;4965141;28;20146;-70
2023/04/18 09:38:39;;;;;;;2.95;2.30;;;19.20;96.70;;;;;;4965662;28;20070;-70
2023/04/18 09:41:11;;;;;;;3.53;2.50;;;19.00;96.70;;;;;;4967312;28;20054;-69
2023/04/18 09:43:39;;;;;;;3.10;2.60;;;19.00;96.70;;;;;;4948090;28;20047;-70
2023/04/18 09:46:07;;;;;;;3.58;2.22;;;19.10;96.70;;;;;;4963664;28;20157;-70
2023/04/18 09:48:35;;;;;;;3.83;2.33;;;19.30;96.70;;;;;;4963958;28;20524;-70
2023/04/18 09:51:06;;;;;;;3.17;2.70;;;19.50;96.70;;;;;;4966211;28;20500;-71
2023/04/18 09:53:39;;;;;;;2.33;1.95;;;19.70;96.70;;;;;;4969127;28;20054;-70
2023/04/18 09:56:13;;;;;;;3.10;2.17;;;19.70;96.70;;;;;;4966517;28;20129;-71
2023/04/18 09:58:42;;;;;;;1.98;1.70;;;19.90;96.70;;;;;;4961869;28;20508;-71
2023/04/18 10:01:12;;;;;;;3.17;1.50;;;20.00;96.70;;;;;;4965682;28;20055;-71
2023/04/18 10:03:44;;;;;;;2.10;1.90;;;20.00;96.70;;;;;;4965715;28;20408;-70
2023/04/18 10:06:15;;;;;;;2.15;1.80;;;20.10;96.70;;;;;;4965899;28;20078;-71
2023/04/18 10:08:44;;;;;;;1.98;1.40;;;20.20;96.70;;;;;;4964516;28;20051;-71
2023/04/18 10:11:14;;;;;;;1.80;1.60;;;19.90;96.70;;;;;;4965202;28;20218;-71
2023/04/18 10:13:43;;;;;;;1.75;1.58;;;19.90;96.70;;;;;;4965898;28;20051;-70
2023/04/18 10:16:11;;;;;;;2.10;1.52;;;19.90;96.70;;;;;;4965392;28;20066;-71
2023/04/18 10:18:41;;;;;;;1.85;1.60;;;19.90;96.70;;;;;;4963524;28;20532;-71
2023/04/18 10:21:10;;;;;;;1.80;1.60;;;19.90;96.70;;;;;;4963831;28;20439;-70
2023/04/18 10:23:39;;;;;;;2.50;1.40;;;20.00;96.70;;;;;;4964043;28;20050;-71
2023/04/18 10:26:07;;;;;;;2.03;1.77;;;20.10;96.70;;;;;;4972282;28;20658;-71
2023/04/18 10:28:51;;;;;;;3.47;1.98;;;20.10;96.70;;;;;;4965511;28;20105;-71
2023/04/18 10:31:21;;;;;;;1.60;1.50;;;20.20;96.70;;;;;;4963436;28;20061;-71
2023/04/18 10:33:51;;;;;;;2.10;1.90;;;20.30;96.70;;;;;;4964262;28;20046;-71
2023/04/18 10:36:31;;;;;;;2.10;1.90;;;20.30;96.70;;;;;;4964011;28;20051;-70
2023/04/18 10:39:02;;;;;;;1.98;1.77;;;20.40;96.70;;;;;;4964424;28;20345;-71
2023/04/18 10:41:31;;;;;;;2.70;1.88;;;20.60;96.70;;;;;;4966731;28;20093;-71
2023/04/18 10:44:21;;;;;;;3.13;1.92;;;20.50;96.70;;;;;;4964310;28;20127;-70
2023/04/18 10:47:29;;;;;;;3.35;1.88;;;20.70;96.70;;;;;;4963777;28;20043;-70
2023/04/18 10:50:00;;;;;;;4.78;2.20;;;20.90;96.70;;;;;;4947430;28;20058;-71
2023/04/18 10:52:33;;;;;;;2.90;2.05;;;21.00;96.70;;;;;;4963006;28;20066;-71
2023/04/18 10:55:17;;;;;;;2.13;1.92;;;21.20;96.70;;;;;;4963185;28;20397;-71
2023/04/18 10:57:46;;;;;;;2.92;1.95;;;21.30;96.70;;;;;;4978172;28;20547;-71
2023/04/18 11:00:19;;;;;;;2.80;1.88;;;21.40;96.70;;;;;;4963018;28;20525;-70
2023/04/18 11:02:52;;;;;;;3.22;1.85;;;21.80;96.70;;;;;;4964752;28;20046;-71
2023/04/18 11:05:23;;;;;;;2.55;2.00;;;22.10;96.70;;;;;;4964516;28;20066;-71
2023/04/18 11:07:51;;;;;;;2.20;2.00;;;22.20;96.70;;;;;;4963317;28;20521;-71
2023/04/18 11:10:20;;;;;;;2.60;1.70;;;22.30;96.70;;;;;;4964230;28;20569;-72
2023/04/18 11:12:49;;;;;;;3.47;2.35;;;22.50;96.70;;;;;;4964719;28;20057;-71
2023/04/18 11:15:20;;;;;;;2.28;2.00;;;22.50;96.70;;;;;;4964004;28;20054;-71
2023/04/18 11:17:56;;;;;;;2.55;1.73;;;22.60;96.70;;;;;;4964579;28;20051;-71
2023/04/18 11:20:25;;;;;;;2.15;1.95;;;22.60;96.70;;;;;;4947180;28;20065;-71
2023/04/18 11:22:55;;;;;;;2.55;2.10;;;22.70;96.70;;;;;;4968320;28;20117;-71
2023/04/18 11:25:27;;;;;;;1.80;1.60;;;22.70;96.70;;;;;;4963134;28;20054;-71
2023/04/18 11:27:58;;;;;;;2.05;1.67;;;22.90;96.70;;;;;;4964208;28;20059;-72
2023/04/18 11:30:34;;;;;;;2.30;1.75;;;22.70;96.70;;;;;;4963138;28;20061;-71
2023/04/18 11:33:05;;;;;;;2.17;1.55;;;22.10;96.70;;;;;;4961562;28;20125;-70
2023/04/18 11:35:36;;;;;;;1.98;1.77;;;21.70;96.70;;;;;;4964133;28;20074;-70
2023/04/18 11:38:07;;;;;;;2.75;1.80;;;21.50;96.70;;;;;;4961435;28;20066;-70
2023/04/18 11:40:36;;;;;;;1.40;1.30;;;21.30;96.70;;;;;;4966019;28;20057;-70
2023/04/18 11:43:05;;;;;;;1.95;1.77;;;21.20;96.70;;;;;;4963627;28;20057;-71
2023/04/18 11:45:34;;;;;;;1.95;1.73;;;21.20;96.70;;;;;;4962334;28;20047;-71
2023/04/18 11:48:02;;;;;;;1.92;1.73;;;21.20;96.70;;;;;;4962527;28;20065;-71
2023/04/18 11:50:35;;;;;;;2.15;1.70;;;21.10;96.70;;;;;;4963912;28;20448;-70
2023/04/18 11:53:03;;;;;;;2.17;1.50;;;21.30;96.70;;;;;;4962006;28;20489;-70
2023/04/18 11:55:32;;;;;;;2.10;1.65;;;21.50;96.70;;;;;;4953481;28;20556;-71
2023/04/18 11:58:01;;;;;;;2.55;1.48;;;21.30;96.70;;;;;;4962182;28;20665;-71
2023/04/18 12:00:36;;;;;;;3.50;1.55;;;21.30;96.70;;;;;;4963396;28;20047;-70
2023/04/18 12:03:08;;;;;;;1.27;1.10;;;21.50;96.70;;;;;;4961980;28;20047;-71
2023/04/18 12:05:41;;;;;;;2.42;1.60;;;21.60;96.70;;;;;;4962368;28;20066;-71
2023/04/18 12:08:10;;;;;;;1.52;1.42;;;21.80;96.70;;;;;;4961729;28;20054;-70
2023/04/18 12:10:45;;;;;;;2.50;1.52;;;22.00;96.70;;;;;;4963404;28;20436;-70
2023/04/18 12:13:13;;;;;;;3.55;1.30;;;22.20;96.70;;;;;;4962196;28;20089;-70
2023/04/18 12:15:43;;;;;;;2.55;1.60;;;22.40;96.70;;;;;;4963582;28;20102;-70
2023/04/18 12:18:14;;;;;;;2.08;1.55;;;22.30;96.70;;;;;;4962898;28;20462;-70
2023/04/18 12:20:50;;;;;;;1.83;1.40;;;22.40;96.70;;;;;;4966442;28;20042;-71
2023/04/18 12:23:34;;;;;;;2.80;1.40;;;22.60;96.70;;;;;;4961314;28;20061;-71
2023/04/18 12:26:03;;;;;;;2.45;1.33;;;22.90;96.70;;;;;;4963145;28;20558;-70
2023/04/18 12:28:32;;;;;;;1.45;1.35;;;22.80;96.70;;;;;;4961975;28;20055;-71
2023/04/18 12:31:04;;;;;;;1.48;1.17;;;23.10;96.70;;;;;;4963634;28;20042;-70
2023/04/18 12:33:37;;;;;;;1.75;1.20;;;23.40;96.70;;;;;;4962308;28;20055;-70
2023/04/18 12:36:07;;;;;;;2.22;1.58;;;23.20;96.70;;;;;;4962045;28;20069;-70
2023/04/18 12:38:35;;;;;;;1.98;1.40;;;22.90;96.70;;;;;;4962465;28;20055;-70
2023/04/18 12:41:04;;;;;;;1.50;1.40;;;22.90;96.70;;;;;;4966276;28;20762;-71
2023/04/18 12:43:32;;;;;;;1.48;1.20;;;22.70;96.70;;;;;;4963194;28;20062;-71
2023/04/18 12:46:01;;;;;;;2.63;1.73;;;22.60;96.70;;;;;;4963457;28;20058;-71
2023/04/18 12:48:29;;;;;;;2.20;1.58;;;22.60;96.70;;;;;;4961988;28;20444;-72
2023/04/18 12:50:57;;;;;;;3.10;1.50;;;22.80;96.70;;;;;;4964631;28;20053;-71
2023/04/18 12:53:25;;;;;;;3.97;1.38;;;22.90;96.70;;;;;;4958071;28;20049;-70
2023/04/18 12:55:53;;;;;;;2.38;1.27;;;23.00;96.70;;;;;;4965599;28;20138;-71
2023/04/18 12:58:20;;;;;;;1.40;1.27;;;23.30;96.70;;;;;;4966720;28;20742;-71
2023/04/18 13:00:48;;;;;;;1.38;1.10;;;23.60;96.70;;;;;;4965334;28;20071;-70